sensor_id;sensor_type;location;lat;lon;timestamp;temperature;humidity
7159;DHT22;63175;52.374;13.132;2023-04-15T00:00:07;8.80;99.90
7159;DHT22;63175;52.374;13.132;2023-04-15T00:02:34;8.80;99.90
7159;DHT22;63175;52.374;13.132;2023-04-15T00:05:03;8.80;99.90
7159;DHT22;63175;52.374;13.132;2023-04-15T00:07:30;8.80;99.90
7159;DHT22;63175;52.374;13.132;2023-04-15T00:09:57;8.80;99.90
7159;DHT22;63175;52.374;13.132;2023-04-15T00:12:24;8.80;99.90
7159;DHT22;63175;52.374;13.132;2023-04-15T00:14:51;8.80;99.90
7159;DHT22;63175;52.374;13.132;2023-04-15T00:17:19;8.80;99.90
7159;DHT22;63175;52.374;13.132;2023-04-15T00:19:46;8.80;99.90
7159;DHT22;63175;52.374;13.132;2023-04-15T00:22:14;8.80;99.90
7159;DHT22;63175;52.374;13.132;2023-04-15T00:24:41;8.80;99.90
7159;DHT22;63175;52.374;13.132;2023-04-15T00:27:08;8.80;99.90
7159;DHT22;63175;52.374;13.132;2023-04-15T00:29:36;8.80;99.90
7159;DHT22;63175;52.374;13.132;2023-04-15T00:32:03;8.80;99.90
7159;DHT22;63175;52.374;13.132;2023-04-15T00:34:29;8.80;99.90
7159;DHT22;63175;52.374;13.132;2023-04-15T00:36:56;8.90;99.90
7159;DHT22;63175;52.374;13.132;2023-04-15T00:39:25;8.90;99.90
7159;DHT22;63175;52.374;13.132;2023-04-15T00:41:52;8.90;99.90
7159;DHT22;63175;52.374;13.132;2023-04-15T00:44:20;8.90;99.90
7159;DHT22;63175;52.374;13.132;2023-04-15T00:46:47;8.90;99.90
7159;DHT22;63175;52.374;13.132;2023-04-15T00:49:16;8.90;99.90
7159;DHT22;63175;52.374;13.132;2023-04-15T00:51:43;8.90;99.90
7159;DHT22;63175;52.374;13.132;2023-04-15T00:54:10;8.90;99.90
7159;DHT22;63175;52.374;13.132;2023-04-15T00:56:39;8.90;99.90
7159;DHT22;63175;52.374;13.132;2023-04-15T00:59:07;9.00;99.90
7159;DHT22;63175;52.374;13.132;2023-04-15T01:01:35;9.00;99.90
7159;DHT22;63175;52.374;13.132;2023-04-15T01:04:03;9.00;99.90
7159;DHT22;63175;52.374;13.132;2023-04-15T01:06:30;9.00;99.90
7159;DHT22;63175;52.374;13.132;2023-04-15T01:08:58;9.00;99.90
7159;DHT22;63175;52.374;13.132;2023-04-15T01:11:26;9.00;99.90
7159;DHT22;63175;52.374;13.132;2023-04-15T01:13:55;9.00;99.90
7159;DHT22;63175;52.374;13.132;2023-04-15T01:16:24;9.00;99.90
7159;DHT22;63175;52.374;13.132;2023-04-15T01:18:51;9.00;99.90
7159;DHT22;63175;52.374;13.132;2023-04-15T01:21:19;9.00;99.90
7159;DHT22;63175;52.374;13.132;2023-04-15T01:23:46;9.00;99.90
7159;DHT22;63175;52.374;13.132;2023-04-15T01:26:15;9.00;99.90
7159;DHT22;63175;52.374;13.132;2023-04-15T01:28:42;9.00;99.90
7159;DHT22;63175;52.374;13.132;2023-04-15T01:31:11;9.00;99.90
7159;DHT22;63175;52.374;13.132;2023-04-15T01:33:38;9.00;99.90
7159;DHT22;63175;52.374;13.132;2023-04-15T01:36:06;9.00;99.90
7159;DHT22;63175;52.374;13.132;2023-04-15T01:38:34;9.00;99.90
7159;DHT22;63175;52.374;13.132;2023-04-15T01:41:01;9.00;99.90
7159;DHT22;63175;52.374;13.132;2023-04-15T01:43:30;9.00;99.90
7159;DHT22;63175;52.374;13.132;2023-04-15T01:45:57;9.00;99.90
7159;DHT22;63175;52.374;13.132;2023-04-15T01:48:24;9.00;99.90
7159;DHT22;63175;52.374;13.132;2023-04-15T01:50:53;9.00;99.90
7159;DHT22;63175;52.374;13.132;2023-04-15T01:53:22;9.00;99.90
7159;DHT22;63175;52.374;13.132;2023-04-15T01:55:49;9.00;99.90
7159;DHT22;63175;52.374;13.132;2023-04-15T01:58:15;9.00;99.90
7159;DHT22;63175;52.374;13.132;2023-04-15T02:00:44;9.00;99.90
7159;DHT22;63175;52.374;13.132;2023-04-15T02:03:10;9.00;99.90
7159;DHT22;63175;52.374;13.132;2023-04-15T02:05:37;9.00;99.90
7159;DHT22;63175;52.374;13.132;2023-04-15T02:08:04;9.00;99.90
7159;DHT22;63175;52.374;13.132;2023-04-15T02:10:31;9.00;99.90
7159;DHT22;63175;52.374;13.132;2023-04-15T02:12:58;9.00;99.90
7159;DHT22;63175;52.374;13.132;2023-04-15T02:15:25;9.00;99.90
7159;DHT22;63175;52.374;13.132;2023-04-15T02:17:53;9.00;99.90
7159;DHT22;63175;52.374;13.132;2023-04-15T02:20:20;9.00;99.90
7159;DHT22;63175;52.374;13.132;2023-04-15T02:22:47;9.00;99.90
7159;DHT22;63175;52.374;13.132;2023-04-15T02:25:14;9.00;99.90
7159;DHT22;63175;52.374;13.132;2023-04-15T02:27:42;9.00;99.90
7159;DHT22;63175;52.374;13.132;2023-04-15T02:30:09;9.00;99.90
7159;DHT22;63175;52.374;13.132;2023-04-15T02:32:36;9.00;99.90
7159;DHT22;63175;52.374;13.132;2023-04-15T02:35:06;9.00;99.90
7159;DHT22;63175;52.374;13.132;2023-04-15T02:37:35;9.00;99.90
7159;DHT22;63175;52.374;13.132;2023-04-15T02:40:06;9.00;99.90
7159;DHT22;63175;52.374;13.132;2023-04-15T02:42:33;9.00;99.90
7159;DHT22;63175;52.374;13.132;2023-04-15T02:45:00;9.00;99.90
7159;DHT22;63175;52.374;13.132;2023-04-15T02:47:27;9.00;99.90
7159;DHT22;63175;52.374;13.132;2023-04-15T02:49:54;9.00;99.90
7159;DHT22;63175;52.374;13.132;2023-04-15T02:52:24;9.00;99.90
7159;DHT22;63175;52.374;13.132;2023-04-15T02:54:51;9.00;99.90
7159;DHT22;63175;52.374;13.132;2023-04-15T02:57:18;9.00;99.90
7159;DHT22;63175;52.374;13.132;2023-04-15T02:59:45;9.00;99.90
7159;DHT22;63175;52.374;13.132;2023-04-15T03:02:12;9.00;99.90
7159;DHT22;63175;52.374;13.132;2023-04-15T03:04:38;9.00;99.90
7159;DHT22;63175;52.374;13.132;2023-04-15T03:07:05;9.00;99.90
7159;DHT22;63175;52.374;13.132;2023-04-15T03:09:34;9.00;99.90
7159;DHT22;63175;52.374;13.132;2023-04-15T03:12:01;9.00;99.90
7159;DHT22;63175;52.374;13.132;2023-04-15T03:14:27;9.00;99.90
7159;DHT22;63175;52.374;13.132;2023-04-15T03:16:54;9.00;99.90
7159;DHT22;63175;52.374;13.132;2023-04-15T03:19:21;9.00;99.90
7159;DHT22;63175;52.374;13.132;2023-04-15T03:21:48;9.00;99.90
7159;DHT22;63175;52.374;13.132;2023-04-15T03:24:15;9.00;99.90
7159;DHT22;63175;52.374;13.132;2023-04-15T03:26:43;9.00;99.90
7159;DHT22;63175;52.374;13.132;2023-04-15T03:29:10;9.00;99.90
7159;DHT22;63175;52.374;13.132;2023-04-15T03:31:37;9.00;99.90
7159;DHT22;63175;52.374;13.132;2023-04-15T03:34:04;9.00;99.90
7159;DHT22;63175;52.374;13.132;2023-04-15T03:36:31;9.00;99.90
7159;DHT22;63175;52.374;13.132;2023-04-15T03:38:58;9.10;99.90
7159;DHT22;63175;52.374;13.132;2023-04-15T03:41:26;9.00;99.90
7159;DHT22;63175;52.374;13.132;2023-04-15T03:43:55;9.00;99.90
7159;DHT22;63175;52.374;13.132;2023-04-15T03:46:22;9.00;99.90
7159;DHT22;63175;52.374;13.132;2023-04-15T03:48:49;9.00;99.90
7159;DHT22;63175;52.374;13.132;2023-04-15T03:51:16;9.00;99.90
7159;DHT22;63175;52.374;13.132;2023-04-15T03:53:43;9.00;99.90
7159;DHT22;63175;52.374;13.132;2023-04-15T03:56:09;9.00;99.90
7159;DHT22;63175;52.374;13.132;2023-04-15T03:58:36;9.10;99.90
7159;DHT22;63175;52.374;13.132;2023-04-15T04:01:04;9.10;99.90
7159;DHT22;63175;52.374;13.132;2023-04-15T04:03:31;9.10;99.90
7159;DHT22;63175;52.374;13.132;2023-04-15T04:05:59;9.10;99.90
7159;DHT22;63175;52.374;13.132;2023-04-15T04:08:25;9.10;99.90
7159;DHT22;63175;52.374;13.132;2023-04-15T04:10:52;9.10;99.90
7159;DHT22;63175;52.374;13.132;2023-04-15T04:13:19;9.10;99.90
7159;DHT22;63175;52.374;13.132;2023-04-15T04:15:46;9.10;99.90
7159;DHT22;63175;52.374;13.132;2023-04-15T04:18:14;9.10;99.90
7159;DHT22;63175;52.374;13.132;2023-04-15T04:20:42;9.10;99.90
7159;DHT22;63175;52.374;13.132;2023-04-15T04:23:09;9.10;99.90
7159;DHT22;63175;52.374;13.132;2023-04-15T04:25:36;9.10;99.90
7159;DHT22;63175;52.374;13.132;2023-04-15T04:28:03;9.10;99.90
7159;DHT22;63175;52.374;13.132;2023-04-15T04:30:30;9.10;99.90
7159;DHT22;63175;52.374;13.132;2023-04-15T04:32:57;9.10;99.90
7159;DHT22;63175;52.374;13.132;2023-04-15T04:35:25;9.10;99.90
7159;DHT22;63175;52.374;13.132;2023-04-15T04:37:52;9.10;99.90
7159;DHT22;63175;52.374;13.132;2023-04-15T04:40:19;9.20;99.90
7159;DHT22;63175;52.374;13.132;2023-04-15T04:42:46;9.20;99.90
7159;DHT22;63175;52.374;13.132;2023-04-15T04:45:13;9.20;99.90
7159;DHT22;63175;52.374;13.132;2023-04-15T04:47:40;9.20;99.90
7159;DHT22;63175;52.374;13.132;2023-04-15T04:50:07;9.20;99.90
7159;DHT22;63175;52.374;13.132;2023-04-15T04:52:36;9.20;99.90
7159;DHT22;63175;52.374;13.132;2023-04-15T04:55:03;9.20;99.90
7159;DHT22;63175;52.374;13.132;2023-04-15T04:57:30;9.20;99.90
7159;DHT22;63175;52.374;13.132;2023-04-15T04:59:57;9.20;99.90
7159;DHT22;63175;52.374;13.132;2023-04-15T05:02:24;9.20;99.90
7159;DHT22;63175;52.374;13.132;2023-04-15T05:04:51;9.20;99.90
7159;DHT22;63175;52.374;13.132;2023-04-15T05:07:19;9.20;99.90
7159;DHT22;63175;52.374;13.132;2023-04-15T05:09:48;9.20;99.90
7159;DHT22;63175;52.374;13.132;2023-04-15T05:12:15;9.20;99.90
7159;DHT22;63175;52.374;13.132;2023-04-15T05:14:43;9.30;99.90
7159;DHT22;63175;52.374;13.132;2023-04-15T05:17:11;9.30;99.90
7159;DHT22;63175;52.374;13.132;2023-04-15T05:19:38;9.30;99.90
7159;DHT22;63175;52.374;13.132;2023-04-15T05:22:05;9.30;99.90
7159;DHT22;63175;52.374;13.132;2023-04-15T05:24:33;9.80;99.90
7159;DHT22;63175;52.374;13.132;2023-04-15T05:27:01;9.30;99.90
7159;DHT22;63175;52.374;13.132;2023-04-15T05:29:28;9.30;99.90
7159;DHT22;63175;52.374;13.132;2023-04-15T05:31:55;9.30;99.90
7159;DHT22;63175;52.374;13.132;2023-04-15T05:34:22;9.30;99.90
7159;DHT22;63175;52.374;13.132;2023-04-15T05:36:49;9.30;99.90
7159;DHT22;63175;52.374;13.132;2023-04-15T05:39:17;9.30;99.90
7159;DHT22;63175;52.374;13.132;2023-04-15T05:41:44;9.40;99.90
7159;DHT22;63175;52.374;13.132;2023-04-15T05:44:12;9.40;99.90
7159;DHT22;63175;52.374;13.132;2023-04-15T05:46:39;9.40;99.90
7159;DHT22;63175;52.374;13.132;2023-04-15T05:49:06;9.40;99.90
7159;DHT22;63175;52.374;13.132;2023-04-15T05:51:33;9.50;99.90
7159;DHT22;63175;52.374;13.132;2023-04-15T05:54:00;9.50;99.90
7159;DHT22;63175;52.374;13.132;2023-04-15T05:56:27;9.50;99.90
7159;DHT22;63175;52.374;13.132;2023-04-15T05:58:53;9.50;99.90
7159;DHT22;63175;52.374;13.132;2023-04-15T06:01:22;9.60;99.90
7159;DHT22;63175;52.374;13.132;2023-04-15T06:03:49;9.60;99.90
7159;DHT22;63175;52.374;13.132;2023-04-15T06:06:16;9.70;99.90
7159;DHT22;63175;52.374;13.132;2023-04-15T06:08:43;9.70;99.90
7159;DHT22;63175;52.374;13.132;2023-04-15T06:11:10;9.70;99.90
7159;DHT22;63175;52.374;13.132;2023-04-15T06:13:37;9.80;99.90
7159;DHT22;63175;52.374;13.132;2023-04-15T06:16:04;9.80;99.90
7159;DHT22;63175;52.374;13.132;2023-04-15T06:18:33;9.80;99.90
7159;DHT22;63175;52.374;13.132;2023-04-15T06:21:00;9.90;99.90
7159;DHT22;63175;52.374;13.132;2023-04-15T06:23:27;9.90;99.90
7159;DHT22;63175;52.374;13.132;2023-04-15T06:25:54;9.90;99.90
7159;DHT22;63175;52.374;13.132;2023-04-15T06:28:21;10.00;99.90
7159;DHT22;63175;52.374;13.132;2023-04-15T06:30:48;10.00;99.90
7159;DHT22;63175;52.374;13.132;2023-04-15T06:33:15;10.10;99.90
7159;DHT22;63175;52.374;13.132;2023-04-15T06:35:43;10.10;99.90
7159;DHT22;63175;52.374;13.132;2023-04-15T06:38:10;10.20;99.90
7159;DHT22;63175;52.374;13.132;2023-04-15T06:40:37;10.30;99.90
7159;DHT22;63175;52.374;13.132;2023-04-15T06:43:04;10.30;99.90
7159;DHT22;63175;52.374;13.132;2023-04-15T06:45:31;10.40;99.90
7159;DHT22;63175;52.374;13.132;2023-04-15T06:47:58;10.50;99.90
7159;DHT22;63175;52.374;13.132;2023-04-15T06:50:25;10.50;99.90
7159;DHT22;63175;52.374;13.132;2023-04-15T06:52:54;10.60;99.90
7159;DHT22;63175;52.374;13.132;2023-04-15T06:55:21;10.70;99.90
7159;DHT22;63175;52.374;13.132;2023-04-15T06:57:48;10.80;99.90
7159;DHT22;63175;52.374;13.132;2023-04-15T07:00:15;10.90;99.90
7159;DHT22;63175;52.374;13.132;2023-04-15T07:02:43;11.00;99.90
7159;DHT22;63175;52.374;13.132;2023-04-15T07:05:11;11.00;99.90
7159;DHT22;63175;52.374;13.132;2023-04-15T07:07:37;11.10;99.90
7159;DHT22;63175;52.374;13.132;2023-04-15T07:10:07;11.10;99.90
7159;DHT22;63175;52.374;13.132;2023-04-15T07:12:34;11.10;99.90
7159;DHT22;63175;52.374;13.132;2023-04-15T07:15:01;11.20;99.90
7159;DHT22;63175;52.374;13.132;2023-04-15T07:17:28;11.20;99.90
7159;DHT22;63175;52.374;13.132;2023-04-15T07:19:55;11.30;99.90
7159;DHT22;63175;52.374;13.132;2023-04-15T07:22:21;11.40;99.90
7159;DHT22;63175;52.374;13.132;2023-04-15T07:24:48;11.40;99.90
7159;DHT22;63175;52.374;13.132;2023-04-15T07:27:18;11.40;99.90
7159;DHT22;63175;52.374;13.132;2023-04-15T07:29:45;11.50;99.90
7159;DHT22;63175;52.374;13.132;2023-04-15T07:32:12;11.50;99.90
7159;DHT22;63175;52.374;13.132;2023-04-15T07:34:39;11.50;99.90
7159;DHT22;63175;52.374;13.132;2023-04-15T07:37:06;11.50;99.90
7159;DHT22;63175;52.374;13.132;2023-04-15T07:39:32;11.40;99.90
7159;DHT22;63175;52.374;13.132;2023-04-15T07:41:59;11.40;99.90
7159;DHT22;63175;52.374;13.132;2023-04-15T07:44:28;11.40;99.90
7159;DHT22;63175;52.374;13.132;2023-04-15T07:46:55;11.30;99.90
7159;DHT22;63175;52.374;13.132;2023-04-15T07:49:22;11.30;99.90
7159;DHT22;63175;52.374;13.132;2023-04-15T07:51:49;11.30;99.90
7159;DHT22;63175;52.374;13.132;2023-04-15T07:54:16;11.30;99.90
7159;DHT22;63175;52.374;13.132;2023-04-15T07:56:42;11.30;99.90
7159;DHT22;63175;52.374;13.132;2023-04-15T07:59:12;11.30;99.90
7159;DHT22;63175;52.374;13.132;2023-04-15T08:01:41;11.30;99.90
7159;DHT22;63175;52.374;13.132;2023-04-15T08:04:08;11.30;99.90
7159;DHT22;63175;52.374;13.132;2023-04-15T08:06:35;11.30;99.90
7159;DHT22;63175;52.374;13.132;2023-04-15T08:09:04;11.30;99.90
7159;DHT22;63175;52.374;13.132;2023-04-15T08:11:31;11.20;99.90
7159;DHT22;63175;52.374;13.132;2023-04-15T08:13:58;11.20;99.90
7159;DHT22;63175;52.374;13.132;2023-04-15T08:16:25;11.20;99.90
7159;DHT22;63175;52.374;13.132;2023-04-15T08:18:55;11.20;99.90
7159;DHT22;63175;52.374;13.132;2023-04-15T08:21:22;11.20;99.90
7159;DHT22;63175;52.374;13.132;2023-04-15T08:23:51;11.20;99.90
7159;DHT22;63175;52.374;13.132;2023-04-15T08:26:18;11.00;99.90
7159;DHT22;63175;52.374;13.132;2023-04-15T08:28:46;11.10;99.90
7159;DHT22;63175;52.374;13.132;2023-04-15T08:31:13;11.10;99.90
7159;DHT22;63175;52.374;13.132;2023-04-15T08:33:41;11.10;99.90
7159;DHT22;63175;52.374;13.132;2023-04-15T08:36:09;11.10;99.90
7159;DHT22;63175;52.374;13.132;2023-04-15T08:38:36;11.00;99.90
7159;DHT22;63175;52.374;13.132;2023-04-15T08:41:07;11.00;99.90
7159;DHT22;63175;52.374;13.132;2023-04-15T08:43:39;11.00;99.90
7159;DHT22;63175;52.374;13.132;2023-04-15T08:46:10;11.00;99.90
7159;DHT22;63175;52.374;13.132;2023-04-15T08:48:37;11.00;99.90
7159;DHT22;63175;52.374;13.132;2023-04-15T08:51:05;11.00;99.90
7159;DHT22;63175;52.374;13.132;2023-04-15T08:53:34;10.90;99.90
7159;DHT22;63175;52.374;13.132;2023-04-15T08:56:04;10.90;99.90
7159;DHT22;63175;52.374;13.132;2023-04-15T08:58:34;10.90;99.90
7159;DHT22;63175;52.374;13.132;2023-04-15T09:01:01;10.90;99.90
7159;DHT22;63175;52.374;13.132;2023-04-15T09:03:28;10.90;99.90
7159;DHT22;63175;52.374;13.132;2023-04-15T09:05:56;10.90;99.90
7159;DHT22;63175;52.374;13.132;2023-04-15T09:08:23;10.90;99.90
7159;DHT22;63175;52.374;13.132;2023-04-15T09:10:52;10.90;99.90
7159;DHT22;63175;52.374;13.132;2023-04-15T09:13:19;10.90;99.90
7159;DHT22;63175;52.374;13.132;2023-04-15T09:15:46;10.90;99.90
7159;DHT22;63175;52.374;13.132;2023-04-15T09:18:26;10.90;99.90
7159;DHT22;63175;52.374;13.132;2023-04-15T09:20:54;10.90;99.90
7159;DHT22;63175;52.374;13.132;2023-04-15T09:23:21;10.90;99.90
7159;DHT22;63175;52.374;13.132;2023-04-15T09:25:48;10.90;99.90
7159;DHT22;63175;52.374;13.132;2023-04-15T09:28:23;10.90;99.90
7159;DHT22;63175;52.374;13.132;2023-04-15T09:30:51;10.90;99.90
7159;DHT22;63175;52.374;13.132;2023-04-15T09:33:20;10.90;99.90
7159;DHT22;63175;52.374;13.132;2023-04-15T09:35:56;10.90;99.90
7159;DHT22;63175;52.374;13.132;2023-04-15T09:38:23;10.90;99.90
7159;DHT22;63175;52.374;13.132;2023-04-15T09:40:50;10.90;99.90
7159;DHT22;63175;52.374;13.132;2023-04-15T09:43:19;10.90;99.90
7159;DHT22;63175;52.374;13.132;2023-04-15T09:45:50;10.90;99.90
7159;DHT22;63175;52.374;13.132;2023-04-15T09:48:19;10.90;99.90
7159;DHT22;63175;52.374;13.132;2023-04-15T09:50:47;10.90;99.90
7159;DHT22;63175;52.374;13.132;2023-04-15T09:53:19;10.90;99.90
7159;DHT22;63175;52.374;13.132;2023-04-15T09:55:48;10.90;99.90
7159;DHT22;63175;52.374;13.132;2023-04-15T09:58:21;10.90;99.90
7159;DHT22;63175;52.374;13.132;2023-04-15T10:00:49;10.90;99.90
7159;DHT22;63175;52.374;13.132;2023-04-15T10:03:19;10.90;99.90
7159;DHT22;63175;52.374;13.132;2023-04-15T10:05:47;10.90;99.90
7159;DHT22;63175;52.374;13.132;2023-04-15T10:08:16;10.90;99.90
7159;DHT22;63175;52.374;13.132;2023-04-15T10:10:45;10.90;99.90
7159;DHT22;63175;52.374;13.132;2023-04-15T10:13:13;10.90;99.90
7159;DHT22;63175;52.374;13.132;2023-04-15T10:15:43;10.90;99.90
7159;DHT22;63175;52.374;13.132;2023-04-15T10:18:12;10.90;99.90
7159;DHT22;63175;52.374;13.132;2023-04-15T10:20:41;10.90;99.90
7159;DHT22;63175;52.374;13.132;2023-04-15T10:23:08;10.90;99.90
7159;DHT22;63175;52.374;13.132;2023-04-15T10:25:35;10.90;99.90
7159;DHT22;63175;52.374;13.132;2023-04-15T10:28:03;10.90;99.90
7159;DHT22;63175;52.374;13.132;2023-04-15T10:30:31;10.90;99.90
7159;DHT22;63175;52.374;13.132;2023-04-15T10:33:00;10.90;99.90
7159;DHT22;63175;52.374;13.132;2023-04-15T10:35:28;10.90;99.90
7159;DHT22;63175;52.374;13.132;2023-04-15T10:37:56;10.90;99.90
7159;DHT22;63175;52.374;13.132;2023-04-15T10:40:26;10.90;99.90
7159;DHT22;63175;52.374;13.132;2023-04-15T10:42:54;10.90;99.90
7159;DHT22;63175;52.374;13.132;2023-04-15T10:45:21;11.00;99.90
7159;DHT22;63175;52.374;13.132;2023-04-15T10:47:51;11.00;99.90
7159;DHT22;63175;52.374;13.132;2023-04-15T10:50:21;11.00;99.90
7159;DHT22;63175;52.374;13.132;2023-04-15T10:52:51;11.00;99.90
7159;DHT22;63175;52.374;13.132;2023-04-15T10:55:21;11.00;99.90
7159;DHT22;63175;52.374;13.132;2023-04-15T10:57:51;11.00;99.90
7159;DHT22;63175;52.374;13.132;2023-04-15T11:00:20;11.00;99.90
7159;DHT22;63175;52.374;13.132;2023-04-15T11:02:51;11.10;99.90
7159;DHT22;63175;52.374;13.132;2023-04-15T11:05:21;11.10;99.90
7159;DHT22;63175;52.374;13.132;2023-04-15T11:07:53;11.10;99.90
7159;DHT22;63175;52.374;13.132;2023-04-15T11:10:50;11.20;99.90
7159;DHT22;63175;52.374;13.132;2023-04-15T11:13:24;11.20;99.90
7159;DHT22;63175;52.374;13.132;2023-04-15T11:16:00;11.20;99.90
7159;DHT22;63175;52.374;13.132;2023-04-15T11:18:29;11.20;99.90
7159;DHT22;63175;52.374;13.132;2023-04-15T11:21:03;11.20;99.90
7159;DHT22;63175;52.374;13.132;2023-04-15T11:23:35;11.30;99.90
7159;DHT22;63175;52.374;13.132;2023-04-15T11:26:04;11.20;99.90
7159;DHT22;63175;52.374;13.132;2023-04-15T11:28:34;11.30;99.90
7159;DHT22;63175;52.374;13.132;2023-04-15T11:31:09;11.30;99.90
7159;DHT22;63175;52.374;13.132;2023-04-15T11:33:37;11.30;99.90
7159;DHT22;63175;52.374;13.132;2023-04-15T11:36:06;11.30;99.90
7159;DHT22;63175;52.374;13.132;2023-04-15T11:38:33;11.30;99.90
7159;DHT22;63175;52.374;13.132;2023-04-15T11:41:00;11.30;99.90
7159;DHT22;63175;52.374;13.132;2023-04-15T11:43:27;11.30;99.90
7159;DHT22;63175;52.374;13.132;2023-04-15T11:45:58;11.30;99.90
7159;DHT22;63175;52.374;13.132;2023-04-15T11:48:26;11.20;99.90
7159;DHT22;63175;52.374;13.132;2023-04-15T11:50:55;11.20;99.90
7159;DHT22;63175;52.374;13.132;2023-04-15T11:53:23;11.20;99.90
7159;DHT22;63175;52.374;13.132;2023-04-15T11:55:52;11.20;99.90
7159;DHT22;63175;52.374;13.132;2023-04-15T11:58:20;11.20;99.90
7159;DHT22;63175;52.374;13.132;2023-04-15T12:00:49;11.20;99.90
7159;DHT22;63175;52.374;13.132;2023-04-15T12:03:21;11.20;99.90
7159;DHT22;63175;52.374;13.132;2023-04-15T12:06:12;11.20;99.90
7159;DHT22;63175;52.374;13.132;2023-04-15T12:08:59;11.20;99.90
7159;DHT22;63175;52.374;13.132;2023-04-15T12:11:29;11.20;99.90
7159;DHT22;63175;52.374;13.132;2023-04-15T12:13:58;11.20;99.90
7159;DHT22;63175;52.374;13.132;2023-04-15T12:16:27;11.20;99.90
7159;DHT22;63175;52.374;13.132;2023-04-15T12:18:56;11.30;99.90
7159;DHT22;63175;52.374;13.132;2023-04-15T12:21:25;11.30;99.90
7159;DHT22;63175;52.374;13.132;2023-04-15T12:23:53;11.30;99.90
7159;DHT22;63175;52.374;13.132;2023-04-15T12:26:27;11.30;99.90
7159;DHT22;63175;52.374;13.132;2023-04-15T12:28:54;11.30;99.90
7159;DHT22;63175;52.374;13.132;2023-04-15T12:31:22;11.40;99.90
7159;DHT22;63175;52.374;13.132;2023-04-15T12:33:49;11.40;99.90
7159;DHT22;63175;52.374;13.132;2023-04-15T12:36:16;11.40;99.90
7159;DHT22;63175;52.374;13.132;2023-04-15T12:38:43;11.40;99.90
7159;DHT22;63175;52.374;13.132;2023-04-15T12:41:10;11.40;99.90
7159;DHT22;63175;52.374;13.132;2023-04-15T12:43:38;11.40;99.90
7159;DHT22;63175;52.374;13.132;2023-04-15T12:46:05;11.50;99.90
7159;DHT22;63175;52.374;13.132;2023-04-15T12:48:32;11.50;99.90
7159;DHT22;63175;52.374;13.132;2023-04-15T12:50:59;11.50;99.90
7159;DHT22;63175;52.374;13.132;2023-04-15T12:53:26;11.60;99.90
7159;DHT22;63175;52.374;13.132;2023-04-15T12:55:53;11.60;99.90
7159;DHT22;63175;52.374;13.132;2023-04-15T12:58:20;11.70;99.90
7159;DHT22;63175;52.374;13.132;2023-04-15T13:00:49;11.70;99.90
7159;DHT22;63175;52.374;13.132;2023-04-15T13:03:16;11.70;99.90
7159;DHT22;63175;52.374;13.132;2023-04-15T13:05:43;11.80;99.90
7159;DHT22;63175;52.374;13.132;2023-04-15T13:08:10;11.80;99.90
7159;DHT22;63175;52.374;13.132;2023-04-15T13:10:37;11.90;99.90
7159;DHT22;63175;52.374;13.132;2023-04-15T13:13:04;11.90;99.90
7159;DHT22;63175;52.374;13.132;2023-04-15T13:15:31;11.90;99.90
7159;DHT22;63175;52.374;13.132;2023-04-15T13:17:59;11.90;99.90
7159;DHT22;63175;52.374;13.132;2023-04-15T13:20:27;11.90;99.90
7159;DHT22;63175;52.374;13.132;2023-04-15T13:22:53;11.90;99.90
7159;DHT22;63175;52.374;13.132;2023-04-15T13:25:20;11.90;99.90
7159;DHT22;63175;52.374;13.132;2023-04-15T13:27:47;11.90;99.90
7159;DHT22;63175;52.374;13.132;2023-04-15T13:30:14;12.00;99.90
7159;DHT22;63175;52.374;13.132;2023-04-15T13:32:41;12.00;99.90
7159;DHT22;63175;52.374;13.132;2023-04-15T13:35:09;12.00;99.90
7159;DHT22;63175;52.374;13.132;2023-04-15T13:37:36;12.00;99.90
7159;DHT22;63175;52.374;13.132;2023-04-15T13:40:04;11.90;99.90
7159;DHT22;63175;52.374;13.132;2023-04-15T13:42:32;12.00;99.90
7159;DHT22;63175;52.374;13.132;2023-04-15T13:44:59;11.90;99.90
7159;DHT22;63175;52.374;13.132;2023-04-15T13:47:26;11.90;99.90
7159;DHT22;63175;52.374;13.132;2023-04-15T13:49:53;12.00;99.90
7159;DHT22;63175;52.374;13.132;2023-04-15T13:52:22;11.90;99.90
7159;DHT22;63175;52.374;13.132;2023-04-15T13:54:49;11.90;99.90
7159;DHT22;63175;52.374;13.132;2023-04-15T13:57:16;11.90;99.90
7159;DHT22;63175;52.374;13.132;2023-04-15T13:59:43;11.90;99.90
7159;DHT22;63175;52.374;13.132;2023-04-15T14:02:10;11.90;99.90
7159;DHT22;63175;52.374;13.132;2023-04-15T14:04:37;11.90;99.90
7159;DHT22;63175;52.374;13.132;2023-04-15T14:07:04;11.90;99.90
7159;DHT22;63175;52.374;13.132;2023-04-15T14:09:32;11.80;99.90
7159;DHT22;63175;52.374;13.132;2023-04-15T14:11:59;11.80;99.90
7159;DHT22;63175;52.374;13.132;2023-04-15T14:14:27;11.80;99.90
7159;DHT22;63175;52.374;13.132;2023-04-15T14:16:54;11.80;99.90
7159;DHT22;63175;52.374;13.132;2023-04-15T14:19:22;11.80;99.90
7159;DHT22;63175;52.374;13.132;2023-04-15T14:21:49;11.80;99.90
7159;DHT22;63175;52.374;13.132;2023-04-15T14:24:15;11.80;99.90
7159;DHT22;63175;52.374;13.132;2023-04-15T14:26:44;11.80;99.90
7159;DHT22;63175;52.374;13.132;2023-04-15T14:29:11;11.80;99.90
7159;DHT22;63175;52.374;13.132;2023-04-15T14:31:37;11.80;99.90
7159;DHT22;63175;52.374;13.132;2023-04-15T14:34:04;11.80;99.90
7159;DHT22;63175;52.374;13.132;2023-04-15T14:36:31;11.80;99.90
7159;DHT22;63175;52.374;13.132;2023-04-15T14:38:58;11.80;99.90
7159;DHT22;63175;52.374;13.132;2023-04-15T14:41:25;11.80;99.90
7159;DHT22;63175;52.374;13.132;2023-04-15T14:43:53;11.80;99.90
7159;DHT22;63175;52.374;13.132;2023-04-15T14:46:21;11.70;99.90
7159;DHT22;63175;52.374;13.132;2023-04-15T14:48:48;11.70;99.90
7159;DHT22;63175;52.374;13.132;2023-04-15T14:51:15;11.70;99.90
7159;DHT22;63175;52.374;13.132;2023-04-15T14:53:42;11.70;99.90
7159;DHT22;63175;52.374;13.132;2023-04-15T14:56:09;11.70;99.90
7159;DHT22;63175;52.374;13.132;2023-04-15T14:58:36;11.70;99.90
7159;DHT22;63175;52.374;13.132;2023-04-15T15:01:04;11.60;99.90
7159;DHT22;63175;52.374;13.132;2023-04-15T15:03:31;11.60;99.90
7159;DHT22;63175;52.374;13.132;2023-04-15T15:05:58;11.60;99.90
7159;DHT22;63175;52.374;13.132;2023-04-15T15:08:25;11.60;99.90
7159;DHT22;63175;52.374;13.132;2023-04-15T15:10:51;11.60;99.90
7159;DHT22;63175;52.374;13.132;2023-04-15T15:13:18;11.60;99.90
7159;DHT22;63175;52.374;13.132;2023-04-15T15:15:45;11.60;99.90
7159;DHT22;63175;52.374;13.132;2023-04-15T15:18:15;11.60;99.90
7159;DHT22;63175;52.374;13.132;2023-04-15T15:20:43;11.50;99.90
7159;DHT22;63175;52.374;13.132;2023-04-15T15:23:10;11.50;99.90
7159;DHT22;63175;52.374;13.132;2023-04-15T15:25:37;11.50;99.90
7159;DHT22;63175;52.374;13.132;2023-04-15T15:28:04;11.50;99.90
7159;DHT22;63175;52.374;13.132;2023-04-15T15:30:31;11.50;99.90
7159;DHT22;63175;52.374;13.132;2023-04-15T15:32:58;11.50;99.90
7159;DHT22;63175;52.374;13.132;2023-04-15T15:35:26;11.50;99.90
7159;DHT22;63175;52.374;13.132;2023-04-15T15:37:53;11.50;99.90
7159;DHT22;63175;52.374;13.132;2023-04-15T15:40:20;11.50;99.90